< < Back
Terminal Aerodrome Forecast


Current Version              Previous Versions:   1  2  3  4  5  6  7  8  9  

Terminal Aerodrome Forecast

032
FTUS44 KOHX 300500
TAFBNA
TAF
KBNA 300525Z 3006/3106 00000KT P6SM SKC
     FM301500 36006KT P6SM FEW060 SCT250=



Latest METAR

777
SAUS70 KWBC 310056
MTRBNA
METAR KBNA 310053Z 35004KT 10SM SCT200 BKN250 24/13 A3007 RMK AO2 SLP178
T02440128


USA.gov is the U.S. government's official web portal to all federal, state and local government web resources and services.